Time;durP1;ratioP1;P1;durP2;ratioP2;P2;SDS_P1;SDS_P2;PMS_P1;PMS_P2;Temp;Humidity;BMP_temperature;BMP_pressure;BME280_temperature;BME280_humidity;BME280_pressure;Samples;Min_cycle;Max_cycle;Signal;HPM_P1;HPM_P2
2023/01/16 00:01:29;;;;;;;;;;;;;;;3.21;96.57;97527.22;106680;1280;125299;-75
2023/01/16 00:03:55;;;;;;;;;;;;;;;3.20;96.56;97527.23;106650;1276;23497;-75
2023/01/16 00:06:23;;;;;;;;;;;;;;;3.18;96.61;97526.95;106473;1280;124639;-75
2023/01/16 00:08:50;;;;;;;;;;;;;;;3.16;96.52;97521.67;106759;1260;22604;-75
2023/01/16 00:11:17;;;;;;;;;;;;;;;3.15;96.60;97524.17;106543;1281;22619;-75
2023/01/16 00:13:44;;;;;;;;;;;;;;;3.14;96.87;97517.80;106476;1281;124914;-75
2023/01/16 00:16:12;;;;;;;;;;;;;;;3.13;96.95;97512.71;106546;1281;25261;-75
2023/01/16 00:18:41;;;;;;;;;;;;;;;3.12;97.13;97514.98;106513;1280;126330;-75
2023/01/16 00:21:08;;;;;;;;;;;;;;;3.13;97.10;97517.31;106676;1260;22530;-76
2023/01/16 00:23:35;;;;;;;;;;;;;;;3.13;97.11;97515.11;106918;1269;26379;-75
2023/01/16 00:26:09;;;;;;;;;;;;;;;3.12;97.20;97512.85;106578;1281;124293;-75
2023/01/16 00:28:39;;;;;;;;;;;;;;;3.12;97.18;97505.99;106727;1281;23348;-75
2023/01/16 00:31:06;;;;;;;;;;;;;;;3.11;97.24;97503.71;106445;1263;124477;-75
2023/01/16 00:33:36;;;;;;;;;;;;;;;3.10;97.03;97507.23;106537;1281;23882;-75
2023/01/16 00:36:03;;;;;;;;;;;;;;;3.08;97.06;97502.80;106478;1281;124724;-75
2023/01/16 00:38:31;;;;;;;;;;;;;;;3.06;96.79;97501.19;106541;1277;22515;-76
2023/01/16 00:40:58;;;;;;;;;;;;;;;3.03;96.78;97501.05;106603;1263;22599;-75
2023/01/16 00:43:27;;;;;;;;;;;;;;;3.00;96.60;97501.70;106517;1280;125369;-75
2023/01/16 00:45:56;;;;;;;;;;;;;;;2.98;96.91;97497.86;106710;1280;22781;-75
2023/01/16 00:48:23;;;;;;;;;;;;;;;2.96;96.66;97499.21;106500;1280;126218;-75
2023/01/16 00:50:50;;;;;;;;;;;;;;;2.94;96.71;97498.70;106625;1263;25430;-75
2023/01/16 00:53:16;;;;;;;;;;;;;;;2.90;96.58;97496.29;106607;1280;25343;-75
2023/01/16 00:55:43;;;;;;;;;;;;;;;2.88;96.68;97498.79;106489;1280;124571;-75
2023/01/16 00:58:10;;;;;;;;;;;;;;;2.85;96.59;97498.35;107022;1279;25365;-75
2023/01/16 01:00:37;;;;;;;;;;;;;;;2.81;96.49;97502.55;106558;1262;124630;-75
2023/01/16 01:03:04;;;;;;;;;;;;;;;2.78;96.30;97500.17;106702;1282;22993;-75
2023/01/16 01:05:35;;;;;;;;;;;;;;;2.76;96.32;97501.56;106576;1282;24016;-75
2023/01/16 01:08:03;;;;;;;;;;;;;;;2.74;96.36;97498.86;106540;1282;124707;-75
2023/01/16 01:10:30;;;;;;;;;;;;;;;2.72;96.35;97502.45;106525;1264;25363;-75
2023/01/16 01:12:57;;;;;;;;;;;;;;;2.69;96.37;97498.23;106535;1280;124303;-75
2023/01/16 01:15:24;;;;;;;;;;;;;;;2.68;96.36;97504.86;106555;1280;22511;-75
2023/01/16 01:17:50;;;;;;;;;;;;;;;2.65;96.27;97505.45;106515;1280;124624;-75
2023/01/16 01:20:17;;;;;;;;;;;;;;;2.60;95.98;97504.00;106496;1258;22627;-75
2023/01/16 01:22:46;;;;;;;;;;;;;;;2.55;95.94;97502.26;106657;1273;22521;-75
2023/01/16 01:25:13;;;;;;;;;;;;;;;2.51;96.07;97497.60;106498;1280;124238;-75
2023/01/16 01:27:39;;;;;;;;;;;;;;;2.47;95.85;97501.19;106664;1276;22520;-75
2023/01/16 01:30:06;;;;;;;;;;;;;;;2.42;95.90;97501.14;106446;1263;124824;-76
2023/01/16 01:32:33;;;;;;;;;;;;;;;2.38;95.79;97495.86;106548;1263;23835;-75
2023/01/16 01:35:00;;;;;;;;;;;;;;;2.32;95.61;97494.76;106500;1281;22520;-75
2023/01/16 01:37:27;;;;;;;;;;;;;;;2.25;95.25;97499.21;106475;1281;124461;-75
2023/01/16 01:39:54;;;;;;;;;;;;;;;2.18;94.81;97500.95;106388;1281;250136;-75
2023/01/16 01:45:11;;;;;;;;;;;;;;;2.01;94.77;97497.59;106550;1280;22627;-75
2023/01/16 01:47:40;;;;;;;;;;;;;;;1.93;94.81;97493.10;106569;1273;22512;-75
2023/01/16 01:50:16;;;;;;;;;;;;;;;1.86;94.95;97486.67;106475;1280;125251;-75
2023/01/16 01:52:44;;;;;;;;;;;;;;;1.81;95.07;97490.22;106574;1263;25281;-75
2023/01/16 01:55:12;;;;;;;;;;;;;;;1.76;95.39;97484.59;106445;1281;125778;-75
2023/01/16 01:57:42;;;;;;;;;;;;;;;1.71;95.43;97481.88;106530;1281;24240;-75
2023/01/16 02:00:11;;;;;;;;;;;;;;;1.65;95.24;97490.39;106563;1281;127375;-75
2023/01/16 02:02:43;;;;;;;;;;;;;;;1.60;95.27;97490.80;106685;1270;22538;-75
2023/01/16 02:05:12;;;;;;;;;;;;;;;1.56;95.60;97489.02;106625;1280;24211;-75
2023/01/16 02:07:39;;;;;;;;;;;;;;;1.53;95.78;97491.48;106533;1280;124244;-75
2023/01/16 02:10:12;;;;;;;;;;;;;;;1.51;95.81;97483.01;106579;1280;22610;-75
2023/01/16 02:12:39;;;;;;;;;;;;;;;1.48;95.82;97485.21;106426;1263;124502;-75
2023/01/16 02:15:06;;;;;;;;;;;;;;;1.44;95.59;97482.45;106561;1281;22542;-75
2023/01/16 02:20:23;;;;;;;;;;;;;;;1.38;95.86;97468.64;106486;1282;22513;-75
2023/01/16 02:23:09;;;;;;;;;;;;;;;1.36;95.90;97466.09;106605;1264;24252;-75
2023/01/16 02:25:39;;;;;;;;;;;;;;;1.33;95.97;97461.97;106640;1276;124438;-75
2023/01/16 02:28:26;;;;;;;;;;;;;;;1.30;95.92;97456.74;106554;1281;22726;-75
2023/01/16 02:30:53;;;;;;;;;;;;;;;1.26;95.96;97453.33;106588;1281;124384;-75
2023/01/16 02:33:38;;;;;;;;;;;;;;;1.26;95.95;97447.84;106714;1273;22669;-75
2023/01/16 02:36:24;;;;;;;;;;;;;;;1.24;95.98;97443.27;106417;1281;124590;-75
2023/01/16 02:38:51;;;;;;;;;;;;;;;1.21;96.01;97440.84;106625;1279;24252;-75
2023/01/16 02:41:21;;;;;;;;;;;;;;;1.18;95.66;97439.28;106577;1282;23995;-75
2023/01/16 02:43:55;;;;;;;;;;;;;;;1.14;95.72;97438.18;106991;1262;124386;-75
2023/01/16 02:46:31;;;;;;;;;;;;;;;1.11;96.03;97432.65;106773;1273;22536;-75
2023/01/16 02:49:04;;;;;;;;;;;;;;;1.09;96.16;97427.74;106860;1272;124646;-75
2023/01/16 02:51:58;;;;;;;;;;;;;;;1.07;96.39;97428.54;106905;1279;22624;-75
2023/01/16 02:54:38;;;;;;;;;;;;;;;1.06;96.50;97427.39;106750;1271;124455;-75
2023/01/16 02:57:19;;;;;;;;;;;;;;;1.05;96.46;97422.20;107846;1274;22534;-75
2023/01/16 02:59:53;;;;;;;;;;;;;;;1.04;96.55;97425.52;107239;1273;22556;-76
2023/01/16 03:02:22;;;;;;;;;;;;;;;1.04;96.65;97434.69;106971;1260;24259;-76
2023/01/16 03:04:56;;;;;;;;;;;;;;;1.03;96.72;97434.29;107255;1273;22630;-76
2023/01/16 03:07:23;;;;;;;;;;;;;;;1.02;96.80;97432.84;109011;1266;124724;-76
2023/01/16 03:10:17;;;;;;;;;;;;;;;1.02;96.84;97432.84;107481;1272;22545;-75
2023/01/16 03:12:56;;;;;;;;;;;;;;;0.99;96.40;97433.92;106675;1273;124407;-76
2023/01/16 03:15:43;;;;;;;;;;;;;;;0.93;95.86;97433.52;107369;1277;22511;-76
2023/01/16 03:18:24;;;;;;;;;;;;;;;0.89;96.33;97434.27;106653;1273;125462;-76
2023/01/16 03:20:52;;;;;;;;;;;;;;;0.86;96.35;97428.96;107174;1281;26503;-76
2023/01/16 03:23:55;;;;;;;;;;;;;;;0.85;96.51;97424.25;107601;1262;24611;-76
2023/01/16 03:26:28;;;;;;;;;;;;;;;0.83;96.58;97421.85;107098;1273;25299;-76
2023/01/16 03:28:59;;;;;;;;;;;;;;;0.82;96.52;97417.33;107247;1277;22543;-77
2023/01/16 03:31:26;;;;;;;;;;;;;;;0.81;96.74;97420.09;106865;1273;124442;-76
2023/01/16 03:34:08;;;;;;;;;;;;;;;0.80;96.69;97419.67;107099;1262;22549;-76
2023/01/16 03:36:42;;;;;;;;;;;;;;;0.79;96.79;97406.98;107621;1279;124010;-77
2023/01/16 03:39:11;;;;;;;;;;;;;;;0.79;96.94;97406.87;107546;1267;22966;-77
2023/01/16 03:41:41;;;;;;;;;;;;;;;0.79;96.98;97405.95;107879;1280;24212;-77
2023/01/16 03:44:25;;;;;;;;;;;;;;;0.78;97.30;97406.04;108183;1262;124362;-77
2023/01/16 03:46:52;;;;;;;;;;;;;;;0.80;97.38;97413.45;108611;1279;22541;-78
2023/01/16 03:49:24;;;;;;;;;;;;;;;0.80;97.24;97415.80;109101;1273;123164;-78
2023/01/16 03:51:55;;;;;;;;;;;;;;;0.80;97.25;97421.00;109448;1273;25207;-78
2023/01/16 03:54:40;;;;;;;;;;;;;;;0.81;97.10;97426.08;109302;1260;125039;-78
2023/01/16 03:57:18;;;;;;;;;;;;;;;0.81;97.16;97434.11;109503;1269;22534;-78
2023/01/16 03:59:46;;;;;;;;;;;;;;;0.80;97.03;97435.05;109618;1274;22548;-78
2023/01/16 04:02:18;;;;;;;;;;;;;;;0.80;96.76;97433.66;109521;1274;123134;-78
2023/01/16 04:04:48;;;;;;;;;;;;;;;0.80;96.66;97426.36;109676;1256;22556;-78
2023/01/16 04:07:35;;;;;;;;;;;;;;;0.79;96.30;97427.43;109558;1261;123182;-79
2023/01/16 04:10:05;;;;;;;;;;;;;;;0.77;96.32;97418.36;109752;1273;22544;-79
2023/01/16 04:12:42;;;;;;;;;;;;;;;0.76;96.31;97415.39;109679;1281;124623;-79
2023/01/16 04:15:11;;;;;;;;;;;;;;;0.74;96.17;97410.73;109834;1258;22528;-79
2023/01/16 04:17:39;;;;;;;;;;;;;;;0.73;96.43;97400.44;109673;1281;22522;-79
2023/01/16 04:20:07;;;;;;;;;;;;;;;0.74;96.58;97397.55;109483;1282;124760;-79
2023/01/16 04:22:35;;;;;;;;;;;;;;;0.77;96.94;97392.31;109463;1282;23118;-79
2023/01/16 04:25:04;;;;;;;;;;;;;;;0.79;97.12;97385.63;109272;1281;124610;-79
2023/01/16 04:27:31;;;;;;;;;;;;;;;0.80;96.77;97384.77;109278;1278;22534;-80
2023/01/16 04:29:57;;;;;;;;;;;;;;;0.80;96.90;97380.67;109233;1281;22625;-79
2023/01/16 04:32:24;;;;;;;;;;;;;;;0.80;96.99;97383.89;109312;1273;22484;-80
2023/01/16 04:34:51;;;;;;;;;;;;;;;0.79;96.89;97386.91;109440;1279;22520;-79
2023/01/16 04:37:18;;;;;;;;;;;;;;;0.79;96.84;97389.54;109079;1260;125349;-80
2023/01/16 04:39:47;;;;;;;;;;;;;;;0.78;96.90;97388.19;109151;1280;25414;-80
2023/01/16 04:42:15;;;;;;;;;;;;;;;0.77;96.91;97385.80;109054;1281;123592;-80
2023/01/16 04:44:42;;;;;;;;;;;;;;;0.77;96.87;97384.19;109095;1277;24412;-80
2023/01/16 04:47:09;;;;;;;;;;;;;;;0.77;97.01;97383.84;108934;1260;22535;-80
2023/01/16 04:49:37;;;;;;;;;;;;;;;0.74;96.93;97376.44;108859;1279;125521;-80
2023/01/16 04:52:04;;;;;;;;;;;;;;;0.78;97.19;97378.92;108816;1279;22548;-79
2023/01/16 04:54:31;;;;;;;;;;;;;;;0.80;97.47;97378.39;108924;1279;123379;-79
2023/01/16 04:56:58;;;;;;;;;;;;;;;0.82;97.49;97376.77;108719;1261;22562;-79
2023/01/16 04:59:25;;;;;;;;;;;;;;;0.84;97.53;97368.59;108590;1280;22596;-80
2023/01/16 05:01:52;;;;;;;;;;;;;;;0.86;97.56;97361.58;108647;1269;124650;-79
2023/01/16 05:04:19;;;;;;;;;;;;;;;0.87;97.61;97353.25;108628;1280;22525;-80
2023/01/16 05:06:47;;;;;;;;;;;;;;;0.88;97.71;97350.48;108510;1261;125110;-79
2023/01/16 05:09:15;;;;;;;;;;;;;;;0.92;97.93;97349.44;108830;1273;22480;-80
2023/01/16 05:11:42;;;;;;;;;;;;;;;0.95;98.02;97347.86;108774;1279;22564;-80
2023/01/16 05:14:10;;;;;;;;;;;;;;;0.98;98.13;97349.79;108739;1273;123139;-80
2023/01/16 05:16:41;;;;;;;;;;;;;;;1.01;98.17;97344.59;108736;1256;22549;-79
2023/01/16 05:19:10;;;;;;;;;;;;;;;1.02;98.25;97343.42;108648;1280;123894;-79
2023/01/16 05:21:37;;;;;;;;;;;;;;;1.07;98.39;97339.98;108897;1273;22548;-79
2023/01/16 05:24:04;;;;;;;;;;;;;;;1.09;98.35;97330.90;108609;1280;124596;-79
2023/01/16 05:26:31;;;;;;;;;;;;;;;1.11;98.51;97328.01;108860;1256;22536;-79
2023/01/16 05:28:58;;;;;;;;;;;;;;;1.13;98.31;97321.48;109086;1279;22645;-79
2023/01/16 05:31:25;;;;;;;;;;;;;;;1.16;98.41;97320.48;108868;1279;124440;-79
2023/01/16 05:33:53;;;;;;;;;;;;;;;1.18;98.50;97318.61;108829;1279;22552;-79
2023/01/16 05:36:22;;;;;;;;;;;;;;;1.20;98.43;97320.30;108920;1273;123987;-80
2023/01/16 05:38:50;;;;;;;;;;;;;;;1.22;98.46;97318.19;108932;1261;25274;-80
2023/01/16 05:41:17;;;;;;;;;;;;;;;1.23;98.49;97313.35;108879;1280;22536;-80
2023/01/16 05:43:45;;;;;;;;;;;;;;;1.25;98.54;97313.02;108805;1280;125333;-79
2023/01/16 05:46:14;;;;;;;;;;;;;;;1.25;98.36;97306.23;108901;1280;22469;-79
2023/01/16 05:48:41;;;;;;;;;;;;;;;1.28;98.35;97300.95;108732;1264;123334;-79
2023/01/16 05:51:08;;;;;;;;;;;;;;;1.28;98.17;97294.64;108924;1280;22470;-79
2023/01/16 05:53:35;;;;;;;;;;;;;;;1.29;98.29;97291.67;109048;1280;22954;-79
2023/01/16 05:56:07;;;;;;;;;;;;;;;1.29;98.24;97289.11;109000;1276;124910;-79
2023/01/16 05:58:35;;;;;;;;;;;;;;;1.31;98.34;97294.38;108883;1264;24260;-79
2023/01/16 06:01:03;;;;;;;;;;;;;;;1.33;98.42;97291.10;108663;1281;124087;-80
2023/01/16 06:03:30;;;;;;;;;;;;;;;1.30;97.54;97288.65;108732;1281;22539;-80
2023/01/16 06:06:01;;;;;;;;;;;;;;;1.19;95.91;97290.35;108711;1276;22547;-79
2023/01/16 06:08:31;;;;;;;;;;;;;;;1.08;95.68;97290.60;108776;1260;22585;-80
2023/01/16 06:10:59;;;;;;;;;;;;;;;1.04;96.26;97288.20;108808;1278;22521;-80
2023/01/16 06:13:27;;;;;;;;;;;;;;;1.01;96.45;97288.20;108614;1281;123218;-81
2023/01/16 06:15:53;;;;;;;;;;;;;;;1.01;96.80;97284.50;108833;1277;22910;-80
2023/01/16 06:18:20;;;;;;;;;;;;;;;1.02;97.25;97284.08;108549;1259;124493;-80
2023/01/16 06:20:47;;;;;;;;;;;;;;;1.03;96.98;97285.81;108655;1272;22674;-80
2023/01/16 06:23:15;;;;;;;;;;;;;;;1.02;97.14;97283.41;108730;1280;22575;-80
2023/01/16 06:25:42;;;;;;;;;;;;;;;1.04;97.46;97278.67;108534;1280;125517;-80
2023/01/16 06:28:09;;;;;;;;;;;;;;;1.07;97.56;97275.93;108790;1257;23853;-79
2023/01/16 06:30:36;;;;;;;;;;;;;;;1.08;97.61;97271.43;108752;1281;125595;-79
2023/01/16 06:33:03;;;;;;;;;;;;;;;1.11;97.73;97272.98;108921;1273;23174;-79
2023/01/16 06:35:30;;;;;;;;;;;;;;;1.14;97.93;97269.64;108654;1265;22547;-81
2023/01/16 06:37:57;;;;;;;;;;;;;;;1.17;98.01;97267.25;108955;1258;125931;-81
2023/01/16 06:40:24;;;;;;;;;;;;;;;1.20;98.14;97271.12;108825;1281;22479;-81
2023/01/16 06:42:51;;;;;;;;;;;;;;;1.18;97.13;97271.05;108490;1281;124460;-81
2023/01/16 06:45:21;;;;;;;;;;;;;;;1.15;96.77;97276.30;108762;1281;22541;-81
2023/01/16 06:47:52;;;;;;;;;;;;;;;1.13;96.91;97276.27;108680;1281;23883;-81
2023/01/16 06:50:21;;;;;;;;;;;;;;;1.14;97.03;97277.63;108689;1260;124926;-81
2023/01/16 06:52:48;;;;;;;;;;;;;;;1.13;97.04;97276.98;108788;1276;25325;-81
2023/01/16 06:55:16;;;;;;;;;;;;;;;1.13;97.12;97277.02;108713;1280;125514;-81
2023/01/16 06:57:42;;;;;;;;;;;;;;;1.16;97.27;97270.27;108986;1273;25400;-81
2023/01/16 07:00:10;;;;;;;;;;;;;;;1.18;97.45;97267.95;108847;1262;124531;-81
2023/01/16 07:02:39;;;;;;;;;;;;;;;1.20;97.49;97263.57;108461;1280;22578;-81
2023/01/16 07:05:08;;;;;;;;;;;;;;;1.21;97.57;97266.08;108688;1275;23859;-81
2023/01/16 07:07:35;;;;;;;;;;;;;;;1.23;97.67;97257.61;108743;1282;124712;-81
2023/01/16 07:10:02;;;;;;;;;;;;;;;1.24;97.86;97258.52;108904;1260;22549;-81
2023/01/16 07:12:29;;;;;;;;;;;;;;;1.26;97.90;97260.82;108901;1273;125252;-81
2023/01/16 07:23:22;;;;;;;;;;;;;;;1.20;96.59;97256.05;108475;1277;22532;-81
2023/01/16 07:25:53;;;;;;;;;;;;;;;1.17;96.37;97253.27;108500;1275;124439;-81
2023/01/16 07:28:21;;;;;;;;;;;;;;;1.16;96.47;97255.42;108578;1273;23909;-74
2023/01/16 07:30:48;;;;;;;;;;;;;;;1.21;97.98;97255.02;107787;1257;123357;-81
2023/01/16 07:33:15;;;;;;;;;;;;;;;1.29;97.92;97251.67;109250;1273;22715;-80
2023/01/16 07:35:43;;;;;;;;;;;;;;;1.31;97.10;97250.14;109119;1276;22552;-81
2023/01/16 07:38:10;;;;;;;;;;;;;;;1.32;96.99;97251.45;108853;1274;124268;-80
2023/01/16 07:40:37;;;;;;;;;;;;;;;1.32;96.55;97248.66;108951;1261;24180;-81
2023/01/16 07:43:05;;;;;;;;;;;;;;;1.32;96.45;97248.86;108734;1278;124960;-80
2023/01/16 07:45:32;;;;;;;;;;;;;;;1.33;96.72;97247.20;108481;1275;22525;-72
2023/01/16 07:48:00;;;;;;;;;;;;;;;1.40;97.92;97242.05;109392;1267;22544;-80
2023/01/16 07:50:27;;;;;;;;;;;;;;;1.47;97.49;97239.34;109409;1262;125704;-80
2023/01/16 07:52:54;;;;;;;;;;;;;;;1.50;97.13;97235.69;109620;1274;22526;-80
2023/01/16 07:55:22;;;;;;;;;;;;;;;1.51;96.87;97232.17;109789;1279;124309;-80
2023/01/16 07:57:54;;;;;;;;;;;;;;;1.55;97.07;97234.35;109831;1273;22544;-80
2023/01/16 08:00:29;;;;;;;;;;;;;;;1.59;97.05;97232.17;109918;1260;123368;-80
2023/01/16 08:02:59;;;;;;;;;;;;;;;1.62;96.84;97232.15;108556;1272;22556;-81
2023/01/16 08:05:27;;;;;;;;;;;;;;;1.64;96.99;97235.98;107917;1273;24028;-81
2023/01/16 08:07:54;;;;;;;;;;;;;;;1.68;97.29;97230.20;107961;1273;123226;-81
2023/01/16 08:10:21;;;;;;;;;;;;;;;1.72;97.42;97226.95;108075;1260;25375;-81
2023/01/16 08:12:51;;;;;;;;;;;;;;;1.74;97.10;97226.44;108156;1279;126253;-81
2023/01/16 08:15:21;;;;;;;;;;;;;;;1.75;96.90;97221.64;108239;1273;22462;-80
2023/01/16 08:17:48;;;;;;;;;;;;;;;1.77;97.04;97216.25;108502;1270;22524;-81
2023/01/16 08:20:15;;;;;;;;;;;;;;;1.79;97.06;97209.34;108070;1257;124525;-80
2023/01/16 08:22:43;;;;;;;;;;;;;;;1.81;97.13;97205.02;108031;1280;22609;-80
2023/01/16 08:25:10;;;;;;;;;;;;;;;1.84;97.27;97199.48;107914;1280;126871;-80
2023/01/16 08:27:37;;;;;;;;;;;;;;;1.88;97.44;97198.64;107900;1280;25434;-80
2023/01/16 08:30:05;;;;;;;;;;;;;;;1.93;97.68;97192.83;107892;1279;22571;-80
2023/01/16 08:32:32;;;;;;;;;;;;;;;1.97;97.51;97182.60;108052;1276;124115;-79
2023/01/16 08:34:59;;;;;;;;;;;;;;;1.98;97.21;97177.61;107712;1279;22593;-81
2023/01/16 08:37:26;;;;;;;;;;;;;;;2.00;97.20;97176.35;107283;1279;124345;-81
2023/01/16 08:39:52;;;;;;;;;;;;;;;2.00;96.76;97171.91;107343;1279;24167;-79
2023/01/16 08:53:21;;;;;;;;;;;;;;;2.16;97.36;97156.03;107496;1279;22517;-79
2023/01/16 08:55:49;;;;;;;;;;;;;;;2.19;97.32;97148.85;107334;1279;124656;-79
2023/01/16 08:58:16;;;;;;;;;;;;;;;2.19;97.00;97148.23;107625;1270;22544;-78
2023/01/16 09:00:42;;;;;;;;;;;;;;;2.21;97.01;97146.56;107797;1272;126345;-74
2023/01/16 09:03:10;;;;;;;;;;;;;;;2.23;97.02;97141.70;106738;1273;22497;-74
2023/01/16 09:05:37;;;;;;;;;;;;;;;2.28;97.48;97140.91;107163;1272;22606;-75
2023/01/16 09:08:04;;;;;;;;;;;;;;;2.31;97.61;97130.69;106783;1272;125815;-75
2023/01/16 09:10:31;;;;;;;;;;;;;;;2.35;97.66;97121.72;106706;1272;22498;-75
2023/01/16 09:15:43;;;;;;;;;;;;;;;2.43;97.38;97114.39;106978;1272;23879;-74
2023/01/16 09:18:10;;;;;;;;;;;;;;;2.44;96.99;97109.25;106903;1273;23187;-74
2023/01/16 09:20:37;;;;;;;;;;;;;;;2.44;96.61;97107.48;106908;1273;124041;-75
2023/01/16 09:23:04;;;;;;;;;;;;;;;2.46;96.69;97095.34;107227;1265;24236;-75
2023/01/16 09:25:31;;;;;;;;;;;;;;;2.50;96.98;97090.38;106583;1280;125645;-75
2023/01/16 09:27:58;;;;;;;;;;;;;;;2.53;96.95;97082.93;107113;1274;26118;-75
2023/01/16 09:30:27;;;;;;;;;;;;;;;2.55;97.19;97074.23;106860;1274;124557;-76
2023/01/16 09:32:53;;;;;;;;;;;;;;;2.58;97.11;97074.75;107851;1260;24387;-75
2023/01/16 09:35:20;;;;;;;;;;;;;;;2.61;97.23;97067.17;106998;1268;24657;-75
2023/01/16 09:37:47;;;;;;;;;;;;;;;2.64;96.91;97067.69;107039;1279;124281;-73
2023/01/16 09:40:17;;;;;;;;;;;;;;;2.66;97.00;97064.89;107659;1265;22727;-75
2023/01/16 09:45:50;;;;;;;;;;;;;;;2.69;97.04;97046.25;108889;1280;25324;-70
2023/01/16 09:48:25;;;;;;;;;;;;;;;2.70;96.89;97034.20;106764;1272;125301;-72
2023/01/16 09:50:55;;;;;;;;;;;;;;;2.74;97.29;97018.48;108244;1275;22509;-76
2023/01/16 09:59:36;;;;;;;;;;;;;;;2.85;97.01;97006.94;107110;1272;30333;-74
2023/01/16 10:02:07;;;;;;;;;;;;;;;2.90;97.22;96996.73;107539;1257;125391;-73
2023/01/16 10:04:36;;;;;;;;;;;;;;;2.94;96.99;96987.25;106959;1273;24018;-73
2023/01/16 10:07:21;;;;;;;;;;;;;;;2.95;96.90;96986.06;106847;1280;124349;-74
2023/01/16 10:09:48;;;;;;;;;;;;;;;2.98;96.86;96979.08;106649;1272;22669;-73
2023/01/16 10:12:14;;;;;;;;;;;;;;;3.03;97.11;96979.40;106667;1257;124893;-74
2023/01/16 10:14:51;;;;;;;;;;;;;;;3.06;97.16;96974.21;106610;1272;22962;-74
2023/01/16 10:17:53;;;;;;;;;;;;;;;3.11;97.09;96972.59;106714;1273;24346;-74
2023/01/16 10:20:28;;;;;;;;;;;;;;;3.16;96.90;96964.86;106035;1281;124376;-74
2023/01/16 10:23:23;;;;;;;;;;;;;;;3.21;96.79;96961.63;106172;1268;22521;-74
2023/01/16 10:25:55;;;;;;;;;;;;;;;3.25;96.48;96963.11;106174;1286;124318;-74
2023/01/16 10:28:39;;;;;;;;;;;;;;;3.29;96.46;96954.86;105825;1287;25385;-74
2023/01/16 10:31:12;;;;;;;;;;;;;;;3.32;96.22;96938.77;105559;1287;124476;-74
2023/01/16 10:33:48;;;;;;;;;;;;;;;3.35;96.00;96925.23;105850;1274;23462;-75
2023/01/16 10:36:17;;;;;;;;;;;;;;;3.39;96.27;96918.16;105589;1294;124664;-76
2023/01/16 10:38:46;;;;;;;;;;;;;;;3.45;96.51;96912.38;105782;1294;24265;-74
2023/01/16 10:49:37;;;;;;;;;;;;;;;3.64;95.87;96895.30;105902;1293;124434;-74
2023/01/16 10:52:05;;;;;;;;;;;;;;;3.67;95.77;96884.29;105807;1294;22681;-74
2023/01/16 10:54:32;;;;;;;;;;;;;;;3.71;95.63;96877.41;105872;1274;124727;-74
2023/01/16 10:57:03;;;;;;;;;;;;;;;3.74;95.51;96871.42;106046;1283;22952;-74
2023/01/16 10:59:31;;;;;;;;;;;;;;;3.78;95.44;96867.91;106075;1281;22529;-74
2023/01/16 11:02:03;;;;;;;;;;;;;;;3.82;95.39;96863.77;106019;1287;124479;-74
2023/01/16 11:04:34;;;;;;;;;;;;;;;3.85;95.26;96857.10;106554;1279;22639;-74
2023/01/16 11:07:15;;;;;;;;;;;;;;;3.88;95.11;96849.55;106483;1281;124405;-74
2023/01/16 11:09:45;;;;;;;;;;;;;;;3.90;94.97;96837.59;106597;1280;22524;-74
2023/01/16 11:18:29;;;;;;;;;;;;;;;3.95;94.44;96829.13;106540;1275;22570;-74
2023/01/16 11:20:58;;;;;;;;;;;;;;;3.98;94.22;96821.95;106463;1282;25354;-74
2023/01/16 11:23:26;;;;;;;;;;;;;;;3.99;94.03;96816.47;106472;1280;22626;-75
2023/01/16 11:25:55;;;;;;;;;;;;;;;4.02;93.93;96808.95;106461;1262;124853;-74
2023/01/16 11:28:26;;;;;;;;;;;;;;;4.03;94.02;96801.88;106822;1281;25386;-75
2023/01/16 11:30:58;;;;;;;;;;;;;;;4.04;93.88;96803.18;106804;1274;125406;-75
2023/01/16 11:33:28;;;;;;;;;;;;;;;4.05;93.77;96799.69;106719;1273;23027;-75
2023/01/16 11:35:56;;;;;;;;;;;;;;;4.05;93.65;96801.48;106914;1262;23894;-74
2023/01/16 11:38:24;;;;;;;;;;;;;;;4.05;93.71;96802.13;106537;1275;125966;-74
2023/01/16 11:40:55;;;;;;;;;;;;;;;4.05;93.55;96801.16;109070;1278;22579;-74
2023/01/16 11:46:24;;;;;;;;;;;;;;;4.06;93.54;96789.96;106671;1262;22564;-74
2023/01/16 11:48:54;;;;;;;;;;;;;;;4.09;93.57;96779.23;106455;1281;124410;-74
2023/01/16 11:51:24;;;;;;;;;;;;;;;4.11;93.52;96772.92;106532;1281;22511;-74
2023/01/16 11:53:52;;;;;;;;;;;;;;;4.12;93.37;96762.00;106670;1281;25239;-74
2023/01/16 11:56:26;;;;;;;;;;;;;;;4.14;93.31;96754.32;106399;1262;124282;-74
2023/01/16 11:58:53;;;;;;;;;;;;;;;4.16;93.27;96751.61;106594;1278;22550;-74
2023/01/16 12:01:26;;;;;;;;;;;;;;;4.20;93.29;96744.82;106466;1282;124400;-74
2023/01/16 12:04:07;;;;;;;;;;;;;;;4.23;93.18;96737.15;106670;1282;22586;-74
2023/01/16 12:06:46;;;;;;;;;;;;;;;4.26;93.00;96731.92;106693;1262;124625;-75
2023/01/16 12:09:12;;;;;;;;;;;;;;;4.29;93.12;96722.86;106571;1280;34071;-74
2023/01/16 12:11:42;;;;;;;;;;;;;;;4.31;92.91;96716.96;106578;1280;22642;-74
2023/01/16 12:14:22;;;;;;;;;;;;;;;4.34;92.59;96709.79;106749;1269;124265;-74
2023/01/16 12:16:55;;;;;;;;;;;;;;;4.33;92.41;96702.92;106538;1262;24397;-74
2023/01/16 12:19:31;;;;;;;;;;;;;;;4.35;92.52;96699.40;106549;1273;124391;-75
2023/01/16 12:22:01;;;;;;;;;;;;;;;4.36;92.48;96695.47;107866;1266;24202;-75
2023/01/16 12:24:31;;;;;;;;;;;;;;;4.37;92.24;96691.93;107015;1266;25782;-75
2023/01/16 12:27:23;;;;;;;;;;;;;;;4.39;92.19;96689.63;106521;1267;25309;-74
2023/01/16 12:30:09;;;;;;;;;;;;;;;4.39;91.83;96682.52;106534;1269;22602;-74
2023/01/16 12:32:39;;;;;;;;;;;;;;;4.37;91.79;96675.83;106488;1281;125186;-74
2023/01/16 12:35:14;;;;;;;;;;;;;;;4.41;92.14;96676.94;106931;1257;25302;-75
2023/01/16 12:37:50;;;;;;;;;;;;;;;4.44;91.80;96672.52;106485;1280;124731;-74
2023/01/16 12:40:23;;;;;;;;;;;;;;;4.46;91.52;96664.67;106636;1276;22608;-74
2023/01/16 12:43:19;;;;;;;;;;;;;;;4.50;91.72;96662.18;107003;1273;124699;-74
2023/01/16 12:45:46;;;;;;;;;;;;;;;4.53;91.61;96651.88;107413;1263;23229;-75
2023/01/16 12:48:31;;;;;;;;;;;;;;;4.58;91.72;96649.88;107980;1276;22590;-75
2023/01/16 12:50:58;;;;;;;;;;;;;;;4.64;91.82;96636.96;107906;1275;24387;-75
2023/01/16 12:53:34;;;;;;;;;;;;;;;4.70;91.54;96631.68;108507;1272;23322;-73
2023/01/16 12:56:01;;;;;;;;;;;;;;;4.74;91.52;96621.11;107000;1259;124292;-73
2023/01/16 12:58:30;;;;;;;;;;;;;;;4.80;91.62;96618.95;106827;1280;25331;-73
2023/01/16 13:01:09;;;;;;;;;;;;;;;4.83;91.46;96616.35;107191;1272;124510;-73
2023/01/16 13:03:43;;;;;;;;;;;;;;;4.85;91.29;96612.91;106687;1272;25306;-73
2023/01/16 13:06:12;;;;;;;;;;;;;;;4.86;90.81;96613.84;106649;1279;22544;-73
2023/01/16 13:08:45;;;;;;;;;;;;;;;4.87;90.51;96617.30;106636;1272;124319;-74
2023/01/16 13:14:11;;;;;;;;;;;;;;;4.88;90.92;96615.38;107666;1276;125355;-74
2023/01/16 13:16:42;;;;;;;;;;;;;;;4.88;90.72;96609.38;106731;1263;124740;-73
2023/01/16 13:19:15;;;;;;;;;;;;;;;4.85;90.28;96602.79;107680;1278;125205;-74
2023/01/16 13:22:06;;;;;;;;;;;;;;;4.85;90.48;96597.38;107700;1273;22985;-75
2023/01/16 13:24:53;;;;;;;;;;;;;;;4.90;90.55;96590.48;106502;1281;124457;-75
2023/01/16 13:27:24;;;;;;;;;;;;;;;4.91;90.37;96583.86;106613;1262;25346;-75
2023/01/16 13:29:54;;;;;;;;;;;;;;;4.88;90.42;96576.38;106685;1281;124525;-75
2023/01/16 13:32:27;;;;;;;;;;;;;;;4.85;89.86;96573.38;106591;1280;124995;-74
2023/01/16 13:35:01;;;;;;;;;;;;;;;4.78;89.74;96568.95;107515;1276;22517;-74
2023/01/16 13:37:37;;;;;;;;;;;;;;;4.72;89.73;96565.42;106583;1263;125150;-74
2023/01/16 13:40:13;;;;;;;;;;;;;;;4.67;90.00;96562.96;108373;1272;166060;-75
2023/01/16 13:42:48;;;;;;;;;;;;;;;4.62;89.83;96557.30;107777;1269;126021;-75
2023/01/16 13:48:03;;;;;;;;;;;;;;;4.51;90.13;96545.65;107412;1259;22527;-74
2023/01/16 13:50:31;;;;;;;;;;;;;;;4.48;90.24;96541.30;106888;1266;124284;-74
2023/01/16 13:53:02;;;;;;;;;;;;;;;4.44;90.32;96534.74;108592;1270;23759;-74
2023/01/16 13:55:31;;;;;;;;;;;;;;;4.42;90.50;96532.29;107512;1274;125711;-74
2023/01/16 13:58:16;;;;;;;;;;;;;;;4.39;90.57;96524.49;107857;1263;25493;-74
2023/01/16 14:00:43;;;;;;;;;;;;;;;4.34;90.55;96515.81;108928;1272;127716;-75